sensor_id;sensor_type;location;lat;lon;timestamp;P1;durP1;ratioP1;P2;durP2;ratioP2
64915;SDS011;51427;-27.442;153.014;2022-10-30T00:01:06;1.35;;;0.30;;
64915;SDS011;51427;-27.442;153.014;2022-10-30T00:03:33;0.90;;;0.40;;
64915;SDS011;51427;-27.442;153.014;2022-10-30T00:06:02;1.30;;;0.50;;
64915;SDS011;51427;-27.442;153.014;2022-10-30T00:08:33;1.13;;;0.43;;
64915;SDS011;51427;-27.442;153.014;2022-10-30T00:11:04;0.30;;;0.30;;
64915;SDS011;51427;-27.442;153.014;2022-10-30T00:13:32;1.00;;;0.30;;
64915;SDS011;51427;-27.442;153.014;2022-10-30T00:16:01;1.45;;;0.40;;
64915;SDS011;51427;-27.442;153.014;2022-10-30T00:18:30;2.47;;;0.50;;
64915;SDS011;51427;-27.442;153.014;2022-10-30T00:21:10;2.15;;;0.70;;
64915;SDS011;51427;-27.442;153.014;2022-10-30T00:23:43;0.50;;;0.50;;
64915;SDS011;51427;-27.442;153.014;2022-10-30T00:26:12;0.93;;;0.43;;
64915;SDS011;51427;-27.442;153.014;2022-10-30T00:28:40;1.15;;;0.60;;
64915;SDS011;51427;-27.442;153.014;2022-10-30T00:31:08;0.60;;;0.35;;
64915;SDS011;51427;-27.442;153.014;2022-10-30T00:33:35;0.47;;;0.43;;
64915;SDS011;51427;-27.442;153.014;2022-10-30T00:36:02;0.38;;;0.30;;
64915;SDS011;51427;-27.442;153.014;2022-10-30T00:38:30;0.47;;;0.40;;
64915;SDS011;51427;-27.442;153.014;2022-10-30T00:40:57;0.32;;;0.32;;
64915;SDS011;51427;-27.442;153.014;2022-10-30T00:43:28;1.02;;;0.30;;
64915;SDS011;51427;-27.442;153.014;2022-10-30T00:45:59;0.73;;;0.30;;
64915;SDS011;51427;-27.442;153.014;2022-10-30T00:48:32;0.63;;;0.40;;
64915;SDS011;51427;-27.442;153.014;2022-10-30T00:51:00;0.45;;;0.30;;
64915;SDS011;51427;-27.442;153.014;2022-10-30T00:53:30;1.63;;;0.45;;
64915;SDS011;51427;-27.442;153.014;2022-10-30T00:55:58;3.65;;;0.63;;
64915;SDS011;51427;-27.442;153.014;2022-10-30T00:58:30;1.73;;;0.40;;
64915;SDS011;51427;-27.442;153.014;2022-10-30T01:00:59;1.00;;;0.57;;
64915;SDS011;51427;-27.442;153.014;2022-10-30T01:03:30;0.68;;;0.50;;
64915;SDS011;51427;-27.442;153.014;2022-10-30T01:06:01;1.80;;;0.60;;
64915;SDS011;51427;-27.442;153.014;2022-10-30T01:08:32;1.98;;;0.50;;
64915;SDS011;51427;-27.442;153.014;2022-10-30T01:10:59;2.30;;;0.30;;
64915;SDS011;51427;-27.442;153.014;2022-10-30T01:13:28;1.00;;;0.30;;
64915;SDS011;51427;-27.442;153.014;2022-10-30T01:18:41;0.77;;;0.35;;
64915;SDS011;51427;-27.442;153.014;2022-10-30T01:21:21;3.20;;;0.52;;
64915;SDS011;51427;-27.442;153.014;2022-10-30T01:24:11;0.50;;;0.43;;
64915;SDS011;51427;-27.442;153.014;2022-10-30T01:26:50;0.50;;;0.45;;
64915;SDS011;51427;-27.442;153.014;2022-10-30T01:32:50;0.90;;;0.30;;
64915;SDS011;51427;-27.442;153.014;2022-10-30T01:35:42;0.90;;;0.63;;
64915;SDS011;51427;-27.442;153.014;2022-10-30T01:40:47;1.20;;;0.70;;
64915;SDS011;51427;-27.442;153.014;2022-10-30T01:43:15;1.13;;;1.00;;
64915;SDS011;51427;-27.442;153.014;2022-10-30T01:54:05;0.43;;;0.40;;
64915;SDS011;51427;-27.442;153.014;2022-10-30T01:57:32;1.35;;;0.52;;
64915;SDS011;51427;-27.442;153.014;2022-10-30T02:00:10;0.38;;;0.38;;
64915;SDS011;51427;-27.442;153.014;2022-10-30T02:02:39;1.00;;;0.38;;
64915;SDS011;51427;-27.442;153.014;2022-10-30T02:05:08;0.93;;;0.57;;
64915;SDS011;51427;-27.442;153.014;2022-10-30T02:07:37;2.45;;;0.55;;
64915;SDS011;51427;-27.442;153.014;2022-10-30T02:10:04;1.77;;;0.35;;
64915;SDS011;51427;-27.442;153.014;2022-10-30T02:12:32;1.80;;;0.50;;
64915;SDS011;51427;-27.442;153.014;2022-10-30T02:14:59;0.82;;;0.40;;
64915;SDS011;51427;-27.442;153.014;2022-10-30T02:17:26;1.00;;;0.50;;
64915;SDS011;51427;-27.442;153.014;2022-10-30T02:19:54;1.48;;;0.50;;
64915;SDS011;51427;-27.442;153.014;2022-10-30T02:22:21;1.25;;;0.50;;
64915;SDS011;51427;-27.442;153.014;2022-10-30T02:24:49;0.38;;;0.35;;
64915;SDS011;51427;-27.442;153.014;2022-10-30T02:27:16;0.60;;;0.52;;
64915;SDS011;51427;-27.442;153.014;2022-10-30T02:29:43;2.15;;;0.57;;
64915;SDS011;51427;-27.442;153.014;2022-10-30T02:32:11;0.40;;;0.40;;
64915;SDS011;51427;-27.442;153.014;2022-10-30T02:34:38;1.73;;;0.60;;
64915;SDS011;51427;-27.442;153.014;2022-10-30T02:37:05;1.05;;;0.60;;
64915;SDS011;51427;-27.442;153.014;2022-10-30T02:39:32;1.00;;;0.50;;
64915;SDS011;51427;-27.442;153.014;2022-10-30T02:41:59;2.38;;;0.50;;
64915;SDS011;51427;-27.442;153.014;2022-10-30T02:44:27;0.50;;;0.50;;
64915;SDS011;51427;-27.442;153.014;2022-10-30T02:46:54;1.17;;;0.75;;
64915;SDS011;51427;-27.442;153.014;2022-10-30T02:49:21;2.75;;;0.55;;
64915;SDS011;51427;-27.442;153.014;2022-10-30T02:51:48;1.35;;;0.70;;
64915;SDS011;51427;-27.442;153.014;2022-10-30T02:54:15;1.02;;;0.70;;
64915;SDS011;51427;-27.442;153.014;2022-10-30T02:56:43;0.43;;;0.40;;
64915;SDS011;51427;-27.442;153.014;2022-10-30T02:59:10;3.05;;;0.80;;
64915;SDS011;51427;-27.442;153.014;2022-10-30T03:01:37;1.02;;;0.50;;
64915;SDS011;51427;-27.442;153.014;2022-10-30T03:04:04;1.80;;;0.80;;
64915;SDS011;51427;-27.442;153.014;2022-10-30T03:06:32;0.80;;;0.60;;
64915;SDS011;51427;-27.442;153.014;2022-10-30T03:08:59;0.65;;;0.50;;
64915;SDS011;51427;-27.442;153.014;2022-10-30T03:11:26;0.98;;;0.70;;
64915;SDS011;51427;-27.442;153.014;2022-10-30T03:13:53;3.08;;;0.85;;
64915;SDS011;51427;-27.442;153.014;2022-10-30T03:16:22;1.00;;;0.65;;
64915;SDS011;51427;-27.442;153.014;2022-10-30T03:18:50;3.88;;;0.95;;
64915;SDS011;51427;-27.442;153.014;2022-10-30T03:21:19;1.88;;;0.55;;
64915;SDS011;51427;-27.442;153.014;2022-10-30T03:23:48;1.05;;;0.70;;
64915;SDS011;51427;-27.442;153.014;2022-10-30T03:26:16;0.82;;;0.50;;
64915;SDS011;51427;-27.442;153.014;2022-10-30T03:28:44;2.20;;;0.50;;
64915;SDS011;51427;-27.442;153.014;2022-10-30T03:31:13;2.67;;;0.60;;
64915;SDS011;51427;-27.442;153.014;2022-10-30T03:33:42;0.98;;;0.57;;
64915;SDS011;51427;-27.442;153.014;2022-10-30T03:36:10;0.43;;;0.40;;
64915;SDS011;51427;-27.442;153.014;2022-10-30T03:38:39;0.77;;;0.60;;
64915;SDS011;51427;-27.442;153.014;2022-10-30T03:41:06;2.30;;;0.40;;
64915;SDS011;51427;-27.442;153.014;2022-10-30T03:43:34;2.00;;;0.65;;
64915;SDS011;51427;-27.442;153.014;2022-10-30T03:46:01;0.90;;;0.50;;
64915;SDS011;51427;-27.442;153.014;2022-10-30T03:48:28;2.92;;;0.63;;
64915;SDS011;51427;-27.442;153.014;2022-10-30T03:50:56;1.55;;;0.40;;
64915;SDS011;51427;-27.442;153.014;2022-10-30T03:53:25;1.42;;;0.50;;
64915;SDS011;51427;-27.442;153.014;2022-10-30T03:55:56;1.42;;;0.40;;
64915;SDS011;51427;-27.442;153.014;2022-10-30T03:58:26;1.48;;;0.60;;
64915;SDS011;51427;-27.442;153.014;2022-10-30T04:00:58;1.92;;;0.68;;
64915;SDS011;51427;-27.442;153.014;2022-10-30T04:03:29;1.90;;;0.50;;
64915;SDS011;51427;-27.442;153.014;2022-10-30T04:05:57;2.42;;;0.50;;
64915;SDS011;51427;-27.442;153.014;2022-10-30T04:08:24;1.42;;;0.50;;
64915;SDS011;51427;-27.442;153.014;2022-10-30T04:10:51;0.95;;;0.52;;
64915;SDS011;51427;-27.442;153.014;2022-10-30T04:13:18;1.90;;;0.45;;
64915;SDS011;51427;-27.442;153.014;2022-10-30T04:15:46;0.68;;;0.60;;
64915;SDS011;51427;-27.442;153.014;2022-10-30T04:18:14;2.45;;;0.43;;
64915;SDS011;51427;-27.442;153.014;2022-10-30T04:20:43;0.88;;;0.32;;
64915;SDS011;51427;-27.442;153.014;2022-10-30T04:23:12;0.60;;;0.55;;
64915;SDS011;51427;-27.442;153.014;2022-10-30T04:25:41;1.27;;;0.40;;
64915;SDS011;51427;-27.442;153.014;2022-10-30T04:28:09;0.47;;;0.40;;
64915;SDS011;51427;-27.442;153.014;2022-10-30T04:30:36;1.40;;;0.50;;
64915;SDS011;51427;-27.442;153.014;2022-10-30T04:33:05;1.85;;;0.50;;
64915;SDS011;51427;-27.442;153.014;2022-10-30T04:35:37;1.75;;;0.50;;
64915;SDS011;51427;-27.442;153.014;2022-10-30T04:38:09;1.27;;;0.68;;
64915;SDS011;51427;-27.442;153.014;2022-10-30T04:40:39;1.15;;;0.60;;
64915;SDS011;51427;-27.442;153.014;2022-10-30T04:43:08;0.80;;;0.40;;
64915;SDS011;51427;-27.442;153.014;2022-10-30T04:45:37;4.38;;;0.60;;
64915;SDS011;51427;-27.442;153.014;2022-10-30T04:48:06;0.95;;;0.68;;
64915;SDS011;51427;-27.442;153.014;2022-10-30T04:50:34;1.75;;;0.30;;
64915;SDS011;51427;-27.442;153.014;2022-10-30T04:53:03;0.40;;;0.40;;
64915;SDS011;51427;-27.442;153.014;2022-10-30T04:55:33;1.45;;;0.45;;
64915;SDS011;51427;-27.442;153.014;2022-10-30T04:58:01;2.60;;;0.40;;
64915;SDS011;51427;-27.442;153.014;2022-10-30T05:00:29;3.35;;;0.60;;
64915;SDS011;51427;-27.442;153.014;2022-10-30T05:02:57;1.85;;;0.77;;
64915;SDS011;51427;-27.442;153.014;2022-10-30T05:05:26;2.45;;;0.45;;
64915;SDS011;51427;-27.442;153.014;2022-10-30T05:07:56;1.60;;;0.57;;
64915;SDS011;51427;-27.442;153.014;2022-10-30T05:10:24;2.47;;;0.40;;
64915;SDS011;51427;-27.442;153.014;2022-10-30T05:12:51;1.58;;;0.40;;
64915;SDS011;51427;-27.442;153.014;2022-10-30T05:15:19;1.50;;;0.40;;
64915;SDS011;51427;-27.442;153.014;2022-10-30T05:17:50;1.80;;;0.40;;
64915;SDS011;51427;-27.442;153.014;2022-10-30T05:20:19;0.47;;;0.45;;
64915;SDS011;51427;-27.442;153.014;2022-10-30T05:22:56;0.32;;;0.30;;
64915;SDS011;51427;-27.442;153.014;2022-10-30T05:25:24;1.58;;;0.60;;
64915;SDS011;51427;-27.442;153.014;2022-10-30T05:27:59;1.17;;;0.40;;
64915;SDS011;51427;-27.442;153.014;2022-10-30T05:30:29;4.18;;;0.57;;
64915;SDS011;51427;-27.442;153.014;2022-10-30T05:33:01;3.30;;;0.60;;
64915;SDS011;51427;-27.442;153.014;2022-10-30T05:35:31;2.55;;;0.52;;
64915;SDS011;51427;-27.442;153.014;2022-10-30T05:38:00;2.35;;;0.70;;
64915;SDS011;51427;-27.442;153.014;2022-10-30T05:40:30;2.40;;;0.80;;
64915;SDS011;51427;-27.442;153.014;2022-10-30T05:42:58;2.60;;;0.50;;
64915;SDS011;51427;-27.442;153.014;2022-10-30T05:45:26;2.53;;;0.80;;
64915;SDS011;51427;-27.442;153.014;2022-10-30T05:47:58;1.50;;;0.60;;
64915;SDS011;51427;-27.442;153.014;2022-10-30T05:50:27;1.05;;;0.50;;
64915;SDS011;51427;-27.442;153.014;2022-10-30T05:52:56;1.58;;;0.52;;
64915;SDS011;51427;-27.442;153.014;2022-10-30T05:55:27;1.23;;;0.52;;
64915;SDS011;51427;-27.442;153.014;2022-10-30T05:57:57;2.70;;;0.50;;
64915;SDS011;51427;-27.442;153.014;2022-10-30T06:00:26;1.00;;;0.45;;
64915;SDS011;51427;-27.442;153.014;2022-10-30T06:06:19;1.45;;;0.63;;
64915;SDS011;51427;-27.442;153.014;2022-10-30T06:08:46;2.05;;;0.45;;
64915;SDS011;51427;-27.442;153.014;2022-10-30T06:11:14;1.45;;;0.35;;
64915;SDS011;51427;-27.442;153.014;2022-10-30T06:13:42;1.13;;;0.55;;
64915;SDS011;51427;-27.442;153.014;2022-10-30T06:16:09;1.13;;;0.40;;
64915;SDS011;51427;-27.442;153.014;2022-10-30T06:18:37;1.25;;;0.55;;
64915;SDS011;51427;-27.442;153.014;2022-10-30T06:21:04;0.80;;;0.40;;
64915;SDS011;51427;-27.442;153.014;2022-10-30T06:23:33;5.60;;;0.68;;
64915;SDS011;51427;-27.442;153.014;2022-10-30T06:26:00;1.80;;;0.40;;
64915;SDS011;51427;-27.442;153.014;2022-10-30T06:28:28;2.15;;;0.45;;
64915;SDS011;51427;-27.442;153.014;2022-10-30T06:30:56;4.00;;;0.50;;
64915;SDS011;51427;-27.442;153.014;2022-10-30T06:33:23;1.17;;;0.50;;
64915;SDS011;51427;-27.442;153.014;2022-10-30T06:35:51;3.25;;;0.60;;
64915;SDS011;51427;-27.442;153.014;2022-10-30T06:38:19;2.95;;;0.50;;
64915;SDS011;51427;-27.442;153.014;2022-10-30T06:40:47;0.95;;;0.30;;
64915;SDS011;51427;-27.442;153.014;2022-10-30T06:43:14;2.33;;;0.40;;
64915;SDS011;51427;-27.442;153.014;2022-10-30T06:45:42;2.35;;;0.45;;
64915;SDS011;51427;-27.442;153.014;2022-10-30T06:48:10;2.38;;;0.60;;
64915;SDS011;51427;-27.442;153.014;2022-10-30T06:50:37;2.45;;;0.50;;
64915;SDS011;51427;-27.442;153.014;2022-10-30T06:53:05;0.32;;;0.30;;
64915;SDS011;51427;-27.442;153.014;2022-10-30T06:55:33;1.30;;;0.50;;
64915;SDS011;51427;-27.442;153.014;2022-10-30T06:58:00;2.20;;;0.50;;
64915;SDS011;51427;-27.442;153.014;2022-10-30T07:00:28;2.60;;;0.50;;
64915;SDS011;51427;-27.442;153.014;2022-10-30T07:02:56;0.68;;;0.30;;
64915;SDS011;51427;-27.442;153.014;2022-10-30T07:05:25;2.53;;;0.50;;
64915;SDS011;51427;-27.442;153.014;2022-10-30T07:07:54;1.42;;;0.55;;
64915;SDS011;51427;-27.442;153.014;2022-10-30T07:10:22;1.75;;;0.60;;
64915;SDS011;51427;-27.442;153.014;2022-10-30T07:12:51;1.30;;;0.60;;
64915;SDS011;51427;-27.442;153.014;2022-10-30T07:15:20;0.52;;;0.40;;
64915;SDS011;51427;-27.442;153.014;2022-10-30T07:17:54;1.77;;;0.40;;
64915;SDS011;51427;-27.442;153.014;2022-10-30T07:20:23;1.50;;;0.70;;
64915;SDS011;51427;-27.442;153.014;2022-10-30T07:22:52;3.30;;;0.30;;
64915;SDS011;51427;-27.442;153.014;2022-10-30T07:25:20;1.75;;;0.57;;
64915;SDS011;51427;-27.442;153.014;2022-10-30T07:27:49;1.15;;;0.47;;
64915;SDS011;51427;-27.442;153.014;2022-10-30T07:30:19;2.10;;;0.70;;
64915;SDS011;51427;-27.442;153.014;2022-10-30T07:33:06;1.70;;;0.50;;
64915;SDS011;51427;-27.442;153.014;2022-10-30T07:35:35;0.82;;;0.45;;
64915;SDS011;51427;-27.442;153.014;2022-10-30T07:38:03;1.42;;;0.50;;
64915;SDS011;51427;-27.442;153.014;2022-10-30T07:40:33;2.20;;;0.50;;
64915;SDS011;51427;-27.442;153.014;2022-10-30T07:43:01;2.97;;;0.65;;
64915;SDS011;51427;-27.442;153.014;2022-10-30T07:45:30;4.15;;;0.90;;
64915;SDS011;51427;-27.442;153.014;2022-10-30T07:47:58;5.43;;;0.73;;
64915;SDS011;51427;-27.442;153.014;2022-10-30T07:50:26;0.80;;;0.50;;
64915;SDS011;51427;-27.442;153.014;2022-10-30T07:52:53;1.98;;;0.55;;
64915;SDS011;51427;-27.442;153.014;2022-10-30T07:55:21;0.50;;;0.40;;
64915;SDS011;51427;-27.442;153.014;2022-10-30T07:57:49;4.18;;;0.70;;
64915;SDS011;51427;-27.442;153.014;2022-10-30T08:00:17;2.63;;;0.82;;
64915;SDS011;51427;-27.442;153.014;2022-10-30T08:02:47;1.35;;;0.65;;
64915;SDS011;51427;-27.442;153.014;2022-10-30T08:05:16;1.95;;;0.50;;
64915;SDS011;51427;-27.442;153.014;2022-10-30T08:07:44;1.95;;;0.68;;
64915;SDS011;51427;-27.442;153.014;2022-10-30T08:10:13;3.00;;;0.80;;
64915;SDS011;51427;-27.442;153.014;2022-10-30T08:12:41;1.27;;;0.45;;
64915;SDS011;51427;-27.442;153.014;2022-10-30T08:15:10;1.38;;;0.60;;
64915;SDS011;51427;-27.442;153.014;2022-10-30T08:17:45;0.65;;;0.52;;
64915;SDS011;51427;-27.442;153.014;2022-10-30T08:20:15;1.52;;;0.38;;
64915;SDS011;51427;-27.442;153.014;2022-10-30T08:25:20;1.17;;;0.60;;
64915;SDS011;51427;-27.442;153.014;2022-10-30T08:27:50;1.92;;;0.60;;
64915;SDS011;51427;-27.442;153.014;2022-10-30T08:30:20;2.22;;;0.50;;
64915;SDS011;51427;-27.442;153.014;2022-10-30T08:32:48;2.10;;;0.82;;
64915;SDS011;51427;-27.442;153.014;2022-10-30T08:35:16;2.30;;;0.85;;
64915;SDS011;51427;-27.442;153.014;2022-10-30T08:37:44;4.10;;;0.77;;
64915;SDS011;51427;-27.442;153.014;2022-10-30T08:40:11;2.80;;;0.93;;
64915;SDS011;51427;-27.442;153.014;2022-10-30T08:42:39;1.42;;;0.70;;
64915;SDS011;51427;-27.442;153.014;2022-10-30T08:45:07;2.45;;;1.00;;
64915;SDS011;51427;-27.442;153.014;2022-10-30T08:47:35;3.20;;;1.58;;
64915;SDS011;51427;-27.442;153.014;2022-10-30T08:50:02;1.67;;;0.90;;
64915;SDS011;51427;-27.442;153.014;2022-10-30T08:52:30;1.33;;;0.80;;
64915;SDS011;51427;-27.442;153.014;2022-10-30T08:54:58;4.35;;;0.70;;
64915;SDS011;51427;-27.442;153.014;2022-10-30T08:57:26;1.33;;;0.90;;
64915;SDS011;51427;-27.442;153.014;2022-10-30T08:59:53;1.52;;;0.70;;
64915;SDS011;51427;-27.442;153.014;2022-10-30T09:02:21;2.28;;;0.80;;
64915;SDS011;51427;-27.442;153.014;2022-10-30T09:04:49;2.88;;;1.35;;
64915;SDS011;51427;-27.442;153.014;2022-10-30T09:07:16;5.78;;;3.60;;
64915;SDS011;51427;-27.442;153.014;2022-10-30T09:09:44;6.38;;;3.00;;
64915;SDS011;51427;-27.442;153.014;2022-10-30T09:12:11;3.85;;;1.10;;
64915;SDS011;51427;-27.442;153.014;2022-10-30T09:14:39;5.28;;;4.07;;
64915;SDS011;51427;-27.442;153.014;2022-10-30T09:17:07;13.98;;;7.32;;
64915;SDS011;51427;-27.442;153.014;2022-10-30T09:19:34;5.20;;;2.00;;
64915;SDS011;51427;-27.442;153.014;2022-10-30T09:22:02;3.05;;;1.38;;
64915;SDS011;51427;-27.442;153.014;2022-10-30T09:24:30;3.15;;;1.10;;
64915;SDS011;51427;-27.442;153.014;2022-10-30T09:26:57;2.28;;;1.00;;
64915;SDS011;51427;-27.442;153.014;2022-10-30T09:29:25;4.10;;;1.90;;
64915;SDS011;51427;-27.442;153.014;2022-10-30T09:31:54;1.58;;;0.88;;
64915;SDS011;51427;-27.442;153.014;2022-10-30T09:34:21;3.15;;;1.48;;
64915;SDS011;51427;-27.442;153.014;2022-10-30T09:36:49;1.83;;;0.85;;
64915;SDS011;51427;-27.442;153.014;2022-10-30T09:39:16;2.10;;;0.80;;
64915;SDS011;51427;-27.442;153.014;2022-10-30T09:44:30;2.65;;;1.00;;
64915;SDS011;51427;-27.442;153.014;2022-10-30T10:00:18;2.70;;;0.73;;
64915;SDS011;51427;-27.442;153.014;2022-10-30T10:03:04;4.38;;;0.65;;
64915;SDS011;51427;-27.442;153.014;2022-10-30T10:06:00;4.25;;;0.75;;
64915;SDS011;51427;-27.442;153.014;2022-10-30T10:08:40;2.55;;;0.98;;
64915;SDS011;51427;-27.442;153.014;2022-10-30T10:11:29;5.22;;;1.45;;
64915;SDS011;51427;-27.442;153.014;2022-10-30T10:14:08;1.65;;;0.95;;
64915;SDS011;51427;-27.442;153.014;2022-10-30T10:16:52;4.53;;;1.63;;
64915;SDS011;51427;-27.442;153.014;2022-10-30T10:19:25;2.17;;;1.70;;
64915;SDS011;51427;-27.442;153.014;2022-10-30T10:21:55;4.47;;;1.90;;
64915;SDS011;51427;-27.442;153.014;2022-10-30T10:24:32;4.50;;;1.80;;
64915;SDS011;51427;-27.442;153.014;2022-10-30T10:27:40;3.75;;;1.90;;
64915;SDS011;51427;-27.442;153.014;2022-10-30T10:35:42;5.88;;;1.30;;
64915;SDS011;51427;-27.442;153.014;2022-10-30T10:52:39;5.18;;;1.38;;
64915;SDS011;51427;-27.442;153.014;2022-10-30T10:55:20;4.75;;;1.58;;
64915;SDS011;51427;-27.442;153.014;2022-10-30T10:57:50;3.83;;;1.30;;
64915;SDS011;51427;-27.442;153.014;2022-10-30T11:00:21;4.55;;;1.73;;
64915;SDS011;51427;-27.442;153.014;2022-10-30T11:02:52;3.80;;;2.10;;
64915;SDS011;51427;-27.442;153.014;2022-10-30T11:05:33;5.68;;;2.72;;
64915;SDS011;51427;-27.442;153.014;2022-10-30T11:08:47;4.63;;;2.58;;
64915;SDS011;51427;-27.442;153.014;2022-10-30T11:11:03;2.08;;;1.50;;
64915;SDS011;51427;-27.442;153.014;2022-10-30T11:13:36;6.30;;;1.70;;
64915;SDS011;51427;-27.442;153.014;2022-10-30T11:19:07;4.00;;;1.80;;
64915;SDS011;51427;-27.442;153.014;2022-10-30T11:21:37;4.50;;;2.03;;
64915;SDS011;51427;-27.442;153.014;2022-10-30T11:24:30;4.15;;;1.90;;
64915;SDS011;51427;-27.442;153.014;2022-10-30T11:32:28;3.17;;;1.63;;
64915;SDS011;51427;-27.442;153.014;2022-10-30T11:37:36;6.03;;;2.55;;
64915;SDS011;51427;-27.442;153.014;2022-10-30T11:40:06;7.85;;;3.80;;
64915;SDS011;51427;-27.442;153.014;2022-10-30T11:42:51;8.68;;;3.80;;
64915;SDS011;51427;-27.442;153.014;2022-10-30T11:45:29;5.22;;;2.67;;
64915;SDS011;51427;-27.442;153.014;2022-10-30T11:47:59;9.32;;;3.17;;
64915;SDS011;51427;-27.442;153.014;2022-10-30T11:50:31;6.15;;;3.47;;
64915;SDS011;51427;-27.442;153.014;2022-10-30T11:53:00;7.78;;;3.20;;
64915;SDS011;51427;-27.442;153.014;2022-10-30T11:55:39;6.32;;;3.13;;
64915;SDS011;51427;-27.442;153.014;2022-10-30T11:58:33;8.35;;;4.35;;
64915;SDS011;51427;-27.442;153.014;2022-10-30T12:01:05;11.80;;;7.35;;
64915;SDS011;51427;-27.442;153.014;2022-10-30T12:03:54;12.98;;;7.95;;
64915;SDS011;51427;-27.442;153.014;2022-10-30T12:09:00;9.80;;;7.05;;
64915;SDS011;51427;-27.442;153.014;2022-10-30T12:11:31;9.90;;;6.15;;
64915;SDS011;51427;-27.442;153.014;2022-10-30T12:14:00;8.25;;;5.10;;
64915;SDS011;51427;-27.442;153.014;2022-10-30T12:16:29;5.47;;;4.20;;
64915;SDS011;51427;-27.442;153.014;2022-10-30T12:19:01;5.57;;;3.78;;
64915;SDS011;51427;-27.442;153.014;2022-10-30T12:21:46;4.32;;;3.05;;
64915;SDS011;51427;-27.442;153.014;2022-10-30T12:24:36;8.38;;;2.78;;
64915;SDS011;51427;-27.442;153.014;2022-10-30T12:27:11;4.35;;;2.35;;
64915;SDS011;51427;-27.442;153.014;2022-10-30T12:38:14;5.50;;;2.60;;
64915;SDS011;51427;-27.442;153.014;2022-10-30T12:43:30;5.13;;;3.00;;
64915;SDS011;51427;-27.442;153.014;2022-10-30T12:46:07;7.07;;;3.60;;
64915;SDS011;51427;-27.442;153.014;2022-10-30T12:49:05;10.52;;;3.95;;
64915;SDS011;51427;-27.442;153.014;2022-10-30T12:51:46;4.40;;;3.45;;
64915;SDS011;51427;-27.442;153.014;2022-10-30T12:54:26;4.35;;;2.67;;
64915;SDS011;51427;-27.442;153.014;2022-10-30T13:02:32;8.45;;;3.65;;
64915;SDS011;51427;-27.442;153.014;2022-10-30T13:05:46;8.05;;;3.45;;
64915;SDS011;51427;-27.442;153.014;2022-10-30T13:16:20;5.15;;;3.25;;
64915;SDS011;51427;-27.442;153.014;2022-10-30T13:18:55;4.13;;;3.00;;
64915;SDS011;51427;-27.442;153.014;2022-10-30T13:21:41;7.43;;;3.45;;
64915;SDS011;51427;-27.442;153.014;2022-10-30T13:27:44;4.10;;;2.38;;
64915;SDS011;51427;-27.442;153.014;2022-10-30T13:30:22;6.53;;;2.28;;
64915;SDS011;51427;-27.442;153.014;2022-10-30T13:38:05;6.75;;;3.10;;
64915;SDS011;51427;-27.442;153.014;2022-10-30T13:46:57;6.50;;;2.10;;
64915;SDS011;51427;-27.442;153.014;2022-10-30T13:52:21;7.22;;;2.72;;
64915;SDS011;51427;-27.442;153.014;2022-10-30T13:55:05;4.15;;;2.30;;
64915;SDS011;51427;-27.442;153.014;2022-10-30T14:06:16;2.35;;;1.90;;
64915;SDS011;51427;-27.442;153.014;2022-10-30T14:10:00;4.70;;;1.98;;
64915;SDS011;51427;-27.442;153.014;2022-10-30T14:20:43;5.43;;;2.13;;
64915;SDS011;51427;-27.442;153.014;2022-10-30T14:28:38;6.60;;;2.20;;
64915;SDS011;51427;-27.442;153.014;2022-10-30T14:31:11;2.97;;;2.00;;
64915;SDS011;51427;-27.442;153.014;2022-10-30T14:33:49;4.88;;;2.20;;
64915;SDS011;51427;-27.442;153.014;2022-10-30T14:36:22;7.10;;;3.47;;
64915;SDS011;51427;-27.442;153.014;2022-10-30T14:39:36;7.28;;;3.25;;
64915;SDS011;51427;-27.442;153.014;2022-10-30T14:44:59;4.80;;;2.22;;
64915;SDS011;51427;-27.442;153.014;2022-10-30T14:56:40;3.72;;;2.20;;
64915;SDS011;51427;-27.442;153.014;2022-10-30T14:59:18;3.03;;;2.20;;
64915;SDS011;51427;-27.442;153.014;2022-10-30T15:01:54;3.97;;;1.85;;
64915;SDS011;51427;-27.442;153.014;2022-10-30T15:10:30;3.50;;;1.77;;
64915;SDS011;51427;-27.442;153.014;2022-10-30T15:16:07;3.03;;;2.13;;
64915;SDS011;51427;-27.442;153.014;2022-10-30T15:18:34;3.22;;;1.80;;
64915;SDS011;51427;-27.442;153.014;2022-10-30T15:21:05;1.63;;;1.42;;
64915;SDS011;51427;-27.442;153.014;2022-10-30T15:23:34;4.10;;;1.80;;
64915;SDS011;51427;-27.442;153.014;2022-10-30T15:26:06;2.80;;;1.50;;
64915;SDS011;51427;-27.442;153.014;2022-10-30T15:28:43;9.52;;;2.03;;
64915;SDS011;51427;-27.442;153.014;2022-10-30T15:31:22;2.38;;;1.63;;
64915;SDS011;51427;-27.442;153.014;2022-10-30T15:33:52;3.33;;;2.20;;
64915;SDS011;51427;-27.442;153.014;2022-10-30T15:36:21;3.03;;;2.00;;
64915;SDS011;51427;-27.442;153.014;2022-10-30T15:39:31;3.90;;;2.00;;
64915;SDS011;51427;-27.442;153.014;2022-10-30T15:41:54;4.75;;;2.10;;
64915;SDS011;51427;-27.442;153.014;2022-10-30T15:44:29;2.63;;;1.77;;
64915;SDS011;51427;-27.442;153.014;2022-10-30T15:47:02;3.35;;;1.77;;
64915;SDS011;51427;-27.442;153.014;2022-10-30T15:49:36;2.72;;;1.45;;
64915;SDS011;51427;-27.442;153.014;2022-10-30T15:52:20;4.38;;;1.50;;
64915;SDS011;51427;-27.442;153.014;2022-10-30T15:55:00;3.65;;;2.10;;
64915;SDS011;51427;-27.442;153.014;2022-10-30T15:57:33;2.80;;;1.60;;
64915;SDS011;51427;-27.442;153.014;2022-10-30T16:00:19;2.33;;;1.45;;
64915;SDS011;51427;-27.442;153.014;2022-10-30T16:03:01;2.50;;;1.77;;
64915;SDS011;51427;-27.442;153.014;2022-10-30T16:05:29;3.40;;;1.60;;
64915;SDS011;51427;-27.442;153.014;2022-10-30T16:07:58;5.30;;;1.60;;
64915;SDS011;51427;-27.442;153.014;2022-10-30T16:10:30;5.03;;;1.70;;
64915;SDS011;51427;-27.442;153.014;2022-10-30T16:13:00;5.88;;;1.40;;
64915;SDS011;51427;-27.442;153.014;2022-10-30T16:15:30;3.42;;;1.52;;
64915;SDS011;51427;-27.442;153.014;2022-10-30T16:20:43;2.53;;;1.33;;
64915;SDS011;51427;-27.442;153.014;2022-10-30T16:23:15;1.70;;;1.30;;
64915;SDS011;51427;-27.442;153.014;2022-10-30T16:25:45;3.92;;;1.50;;
64915;SDS011;51427;-27.442;153.014;2022-10-30T16:28:23;2.08;;;1.48;;
64915;SDS011;51427;-27.442;153.014;2022-10-30T16:30:56;1.40;;;1.30;;
64915;SDS011;51427;-27.442;153.014;2022-10-30T16:33:29;3.30;;;1.67;;
64915;SDS011;51427;-27.442;153.014;2022-10-30T16:35:58;3.03;;;1.60;;
64915;SDS011;51427;-27.442;153.014;2022-10-30T16:38:30;2.50;;;1.88;;
64915;SDS011;51427;-27.442;153.014;2022-10-30T16:41:05;2.20;;;1.27;;
64915;SDS011;51427;-27.442;153.014;2022-10-30T16:43:41;1.85;;;1.58;;
64915;SDS011;51427;-27.442;153.014;2022-10-30T16:48:56;1.83;;;1.13;;
64915;SDS011;51427;-27.442;153.014;2022-10-30T16:51:26;4.10;;;1.58;;
64915;SDS011;51427;-27.442;153.014;2022-10-30T16:53:55;1.30;;;1.20;;
64915;SDS011;51427;-27.442;153.014;2022-10-30T16:56:28;3.67;;;1.63;;
64915;SDS011;51427;-27.442;153.014;2022-10-30T16:59:04;2.10;;;1.35;;
64915;SDS011;51427;-27.442;153.014;2022-10-30T17:01:39;2.42;;;1.40;;
64915;SDS011;51427;-27.442;153.014;2022-10-30T17:04:10;3.35;;;1.60;;
64915;SDS011;51427;-27.442;153.014;2022-10-30T17:06:41;4.45;;;1.65;;
64915;SDS011;51427;-27.442;153.014;2022-10-30T17:09:26;4.10;;;1.60;;
64915;SDS011;51427;-27.442;153.014;2022-10-30T17:12:11;4.65;;;1.38;;
64915;SDS011;51427;-27.442;153.014;2022-10-30T17:17:41;2.15;;;1.20;;
64915;SDS011;51427;-27.442;153.014;2022-10-30T17:20:13;3.28;;;1.50;;
64915;SDS011;51427;-27.442;153.014;2022-10-30T17:23:03;3.00;;;1.80;;